Time;durP1;ratioP1;P1;durP2;ratioP2;P2;SDS_P1;SDS_P2;PMS_P1;PMS_P2;Temp;Humidity;BMP_temperature;BMP_pressure;BME280_temperature;BME280_humidity;BME280_pressure;Samples;Min_cycle;Max_cycle;Signal;HPM_P1;HPM_P2
2024/01/06 00:01:16;;;;;;;10.20;6.60;;;;;;;-2.05;60.77;100306.47;105924;1253;60419;-68
2024/01/06 00:03:43;;;;;;;11.70;6.50;;;;;;;-2.08;60.74;100307.96;105889;1256;65066;-69
2024/01/06 00:06:14;;;;;;;10.50;6.50;;;;;;;-2.13;60.82;100308.95;105878;1253;60443;-70
2024/01/06 00:08:41;;;;;;;10.90;6.80;;;;;;;-2.16;61.07;100307.14;105843;1256;62751;-68
2024/01/06 00:11:09;;;;;;;12.00;7.00;;;;;;;-2.17;61.30;100300.63;105554;1251;60425;-69
2024/01/06 00:13:36;;;;;;;11.50;6.90;;;;;;;-2.18;61.42;100305.48;105860;1250;60514;-69
2024/01/06 00:16:03;;;;;;;11.40;6.90;;;;;;;-2.17;61.48;100310.29;105758;1253;65197;-69
2024/01/06 00:18:30;;;;;;;12.00;7.10;;;;;;;-2.16;61.61;100312.84;105967;1250;60436;-70
2024/01/06 00:20:57;;;;;;;12.50;6.50;;;;;;;-2.15;61.64;100309.35;105791;1251;63996;-70
2024/01/06 00:23:25;;;;;;;9.50;6.50;;;;;;;-2.13;61.65;100308.09;105884;1255;60561;-70
2024/01/06 00:25:52;;;;;;;12.70;6.80;;;;;;;-2.12;61.91;100303.40;105684;1250;60472;-69
2024/01/06 00:28:19;;;;;;;12.40;7.00;;;;;;;-2.10;61.99;100300.10;105818;1253;65457;-69
2024/01/06 00:30:46;;;;;;;12.10;7.00;;;;;;;-2.10;61.99;100305.09;105753;1253;60453;-70
2024/01/06 00:33:13;;;;;;;14.60;7.60;;;;;;;-2.12;61.96;100313.42;105917;1251;63957;-70
2024/01/06 00:35:40;;;;;;;14.00;7.80;;;;;;;-2.14;61.96;100314.50;106275;1250;60528;-69
2024/01/06 00:38:07;;;;;;;16.80;8.40;;;;;;;-2.16;62.02;100316.64;105894;1251;60534;-69
2024/01/06 00:40:34;;;;;;;13.80;7.30;;;;;;;-2.20;62.26;100312.95;106209;1253;65300;-69
2024/01/06 00:43:01;;;;;;;11.80;7.40;;;;;;;-2.23;62.24;100311.13;106023;1250;67854;-69
2024/01/06 00:45:28;;;;;;;12.90;7.40;;;;;;;-2.27;62.19;100310.21;106029;1250;63738;-69
2024/01/06 00:47:54;;;;;;;14.20;7.40;;;;;;;-2.30;62.27;100305.14;106065;1253;60521;-69
2024/01/06 00:50:21;;;;;;;11.70;6.90;;;;;;;-2.34;62.41;100307.45;105855;1250;60433;-68
2024/01/06 00:52:52;;;;;;;14.00;7.30;;;;;;;-2.37;62.34;100310.31;105827;1254;65255;-69
2024/01/06 00:55:20;;;;;;;12.40;7.30;;;;;;;-2.41;62.28;100299.90;105826;1251;60443;-69
2024/01/06 00:57:47;;;;;;;11.60;7.00;;;;;;;-2.46;62.35;100296.08;105747;1251;65798;-69
2024/01/06 01:00:14;;;;;;;10.50;6.30;;;;;;;-2.49;62.51;100301.70;105786;1261;60479;-69
2024/01/06 01:02:41;;;;;;;11.70;7.10;;;;;;;-2.48;62.71;100312.36;105837;1255;60396;-68
2024/01/06 01:05:08;;;;;;;12.60;6.80;;;;;;;-2.47;62.81;100315.44;105723;1253;65241;-68
2024/01/06 01:07:36;;;;;;;10.30;6.40;;;;;;;-2.50;62.77;100319.30;105891;1254;60604;-69
2024/01/06 01:10:04;;;;;;;12.40;6.50;;;;;;;-2.52;62.81;100310.20;105777;1251;64011;-69
2024/01/06 01:12:32;;;;;;;9.10;6.10;;;;;;;-2.56;62.73;100308.08;105935;1250;63391;-68
2024/01/06 01:14:59;;;;;;;9.50;5.80;;;;;;;-2.59;62.77;100313.33;106039;1250;60450;-69
2024/01/06 01:17:26;;;;;;;10.90;6.20;;;;;;;-2.60;62.84;100318.02;105962;1253;65212;-69
2024/01/06 01:19:53;;;;;;;10.40;6.40;;;;;;;-2.61;62.86;100322.68;105818;1254;60462;-69
2024/01/06 01:22:20;;;;;;;12.40;7.50;;;;;;;-2.61;62.99;100321.83;105862;1256;63791;-69
2024/01/06 01:24:47;;;;;;;14.90;9.20;;;;;;;-2.60;63.07;100325.26;105840;1253;60527;-69
2024/01/06 01:27:14;;;;;;;16.60;8.70;;;;;;;-2.59;63.15;100325.76;105787;1256;61081;-69
2024/01/06 01:29:42;;;;;;;11.90;7.50;;;;;;;-2.59;63.27;100320.94;105891;1256;64038;-70
2024/01/06 01:32:08;;;;;;;10.40;7.30;;;;;;;-2.60;63.28;100329.06;105769;1250;60489;-69
2024/01/06 01:34:36;;;;;;;10.80;7.10;;;;;;;-2.61;63.31;100330.27;105844;1255;63980;-69
2024/01/06 01:37:03;;;;;;;12.00;6.50;;;;;;;-2.64;63.25;100331.90;105779;1256;60422;-70
2024/01/06 01:39:30;;;;;;;10.70;6.30;;;;;;;-2.65;63.25;100341.76;105883;1251;60572;-68
2024/01/06 01:41:57;;;;;;;20.20;14.50;;;;;;;-2.65;63.33;100340.38;105856;1256;63824;-68
2024/01/06 01:44:24;;;;;;;18.40;11.50;;;;;;;-2.65;63.28;100338.99;105945;1251;60407;-69
2024/01/06 01:46:51;;;;;;;15.20;10.30;;;;;;;-2.67;63.40;100336.48;105756;1256;64026;-68
2024/01/06 01:49:18;;;;;;;15.70;9.60;;;;;;;-2.68;63.42;100328.05;105937;1253;60325;-68
2024/01/06 01:51:45;;;;;;;14.30;9.10;;;;;;;-2.67;63.54;100318.38;105641;1256;239653;-69
2024/01/06 01:54:12;;;;;;;14.60;9.60;;;;;;;-2.65;63.54;100317.98;106074;1251;65295;-68
2024/01/06 01:56:39;;;;;;;18.10;11.30;;;;;;;-2.62;63.64;100319.27;105756;1257;60431;-69
2024/01/06 01:59:09;;;;;;;16.00;10.90;;;;;;;-2.61;63.80;100318.02;105767;1255;63827;-69
2024/01/06 02:01:36;;;;;;;17.90;11.90;;;;;;;-2.59;63.77;100321.96;105806;1253;60352;-67
2024/01/06 02:04:04;;;;;;;19.90;13.30;;;;;;;-2.57;63.82;100325.52;105893;1250;60454;-69
2024/01/06 02:06:31;;;;;;;17.50;11.50;;;;;;;-2.54;63.94;100323.38;105894;1255;65817;-70
2024/01/06 02:08:58;;;;;;;20.90;11.70;;;;;;;-2.52;64.01;100320.73;105887;1256;60543;-69
2024/01/06 02:11:26;;;;;;;22.30;13.10;;;;;;;-2.48;64.03;100312.17;105662;1253;63894;-69
2024/01/06 02:13:52;;;;;;;17.00;10.90;;;;;;;-2.43;64.19;100311.70;105477;1255;60451;-69
2024/01/06 02:16:19;;;;;;;15.60;10.50;;;;;;;-2.37;64.38;100312.55;105866;1251;60473;-68
2024/01/06 02:18:46;;;;;;;20.00;11.00;;;;;;;-2.28;64.45;100311.45;105776;1254;65275;-69
2024/01/06 02:21:13;;;;;;;20.10;11.90;;;;;;;-2.21;64.56;100321.42;105509;1260;60423;-68
2024/01/06 02:23:40;;;;;;;18.90;11.20;;;;;;;-2.13;64.64;100325.17;106411;1257;64220;-69
2024/01/06 02:26:07;;;;;;;21.60;12.00;;;;;;;-2.07;64.68;100328.61;108312;1254;58546;-68
2024/01/06 02:28:34;;;;;;;22.40;11.80;;;;;;;-2.01;64.55;100326.39;105799;1250;60518;-70
2024/01/06 02:31:01;;;;;;;24.30;12.40;;;;;;;-1.94;64.50;100322.38;105801;1254;65183;-69
2024/01/06 02:33:29;;;;;;;24.60;12.10;;;;;;;-1.86;64.46;100317.65;105630;1256;60470;-68
2024/01/06 02:35:56;;;;;;;24.60;12.10;;;;;;;-1.81;64.28;100304.38;105773;1257;64072;-68
2024/01/06 02:38:23;;;;;;;18.90;10.20;;;;;;;-1.74;64.14;100306.45;105783;1254;60424;-69
2024/01/06 02:40:50;;;;;;;17.00;9.40;;;;;;;-1.68;63.97;100299.02;105622;1252;60458;-69
2024/01/06 02:43:17;;;;;;;17.60;9.70;;;;;;;-1.63;63.75;100291.08;105739;1254;65247;-70
2024/01/06 02:45:44;;;;;;;26.20;12.50;;;;;;;-1.58;63.58;100284.88;105605;1255;60462;-68
2024/01/06 02:48:11;;;;;;;29.20;13.20;;;;;;;-1.54;63.37;100285.80;105634;1256;64078;-68
2024/01/06 02:50:38;;;;;;;34.20;14.60;;;;;;;-1.53;63.10;100281.45;105824;1252;60452;-68
2024/01/06 02:53:05;;;;;;;34.20;16.90;;;;;;;-1.52;62.85;100276.07;105861;1257;60530;-70
2024/01/06 02:55:32;;;;;;;36.40;16.70;;;;;;;-1.51;62.64;100277.75;105656;1256;65078;-68
2024/01/06 02:57:58;;;;;;;35.60;17.00;;;;;;;-1.50;62.45;100281.17;105673;1256;60453;-70
2024/01/06 03:00:25;;;;;;;37.60;17.40;;;;;;;-1.48;62.43;100289.20;105919;1256;63981;-68
2024/01/06 03:02:52;;;;;;;35.20;16.70;;;;;;;-1.44;62.38;100290.14;105736;1255;60573;-68
2024/01/06 03:05:19;;;;;;;35.40;16.60;;;;;;;-1.40;62.17;100286.41;105702;1254;60483;-70
2024/01/06 03:07:46;;;;;;;33.90;17.80;;;;;;;-1.41;62.03;100287.79;105813;1251;65021;-69
2024/01/06 03:10:13;;;;;;;34.00;18.10;;;;;;;-1.39;62.12;100286.36;105677;1256;60461;-69
2024/01/06 03:12:40;;;;;;;38.10;18.60;;;;;;;-1.37;61.95;100286.29;105794;1256;64563;-69
2024/01/06 03:15:07;;;;;;;32.50;17.40;;;;;;;-1.37;61.84;100285.06;105984;1252;60401;-70
2024/01/06 03:17:34;;;;;;;28.80;15.80;;;;;;;-1.37;61.71;100286.98;106020;1251;60412;-68
2024/01/06 03:20:01;;;;;;;25.10;14.10;;;;;;;-1.38;61.57;100280.45;105844;1256;65144;-69
2024/01/06 03:22:28;;;;;;;25.90;14.30;;;;;;;-1.39;61.45;100277.02;105735;1255;60422;-68
2024/01/06 03:24:55;;;;;;;28.10;13.50;;;;;;;-1.37;61.46;100285.42;105873;1256;64160;-68
2024/01/06 03:27:22;;;;;;;24.90;12.70;;;;;;;-1.36;61.40;100291.25;105786;1256;60336;-69
2024/01/06 03:29:50;;;;;;;24.00;12.50;;;;;;;-1.35;61.33;100289.50;105864;1256;60447;-68
2024/01/06 03:32:16;;;;;;;21.20;12.60;;;;;;;-1.35;61.16;100295.21;106244;1256;65279;-69
2024/01/06 03:34:43;;;;;;;21.80;12.40;;;;;;;-1.34;61.11;100291.57;105829;1254;66869;-69
2024/01/06 03:37:10;;;;;;;21.70;11.20;;;;;;;-1.32;61.17;100278.01;105928;1251;64987;-68
2024/01/06 03:39:37;;;;;;;23.30;12.00;;;;;;;-1.28;61.14;100270.09;105808;1256;60335;-70
2024/01/06 03:42:05;;;;;;;19.20;11.60;;;;;;;-1.23;61.18;100269.23;105948;1251;60460;-70
2024/01/06 03:44:33;;;;;;;20.20;11.40;;;;;;;-1.18;61.10;100270.27;106009;1251;66165;-71
2024/01/06 03:47:00;;;;;;;20.20;10.80;;;;;;;-1.14;60.97;100282.10;106090;1256;60453;-70
2024/01/06 03:49:27;;;;;;;20.70;10.00;;;;;;;-1.13;60.82;100277.06;105650;1258;63785;-68
2024/01/06 03:51:54;;;;;;;15.20;9.10;;;;;;;-1.12;60.69;100285.33;105910;1256;60420;-70
2024/01/06 03:54:22;;;;;;;14.20;7.80;;;;;;;-1.12;60.68;100284.44;105794;1256;60471;-67
2024/01/06 03:56:49;;;;;;;9.60;6.20;;;;;;;-1.11;60.49;100285.80;106009;1257;65525;-69
2024/01/06 03:59:16;;;;;;;12.20;7.00;;;;;;;-1.14;60.29;100298.69;105836;1257;60453;-68
2024/01/06 04:01:43;;;;;;;10.20;6.90;;;;;;;-1.16;60.24;100301.48;105582;1256;63967;-68
2024/01/06 04:04:10;;;;;;;10.50;6.60;;;;;;;-1.17;60.08;100311.37;105895;1254;60453;-69
2024/01/06 04:06:38;;;;;;;13.50;7.30;;;;;;;-1.19;60.02;100323.17;105958;1251;60434;-69
2024/01/06 04:09:05;;;;;;;15.30;8.10;;;;;;;-1.21;60.02;100315.13;105784;1254;65174;-69
2024/01/06 04:11:33;;;;;;;17.30;10.50;;;;;;;-1.21;59.93;100307.70;106063;1251;60767;-69
2024/01/06 04:14:00;;;;;;;18.30;10.40;;;;;;;-1.21;60.07;100292.69;105661;1251;64446;-67
2024/01/06 04:16:27;;;;;;;19.20;10.60;;;;;;;-1.21;60.17;100291.31;105634;1256;60450;-67
2024/01/06 04:18:54;;;;;;;21.10;10.90;;;;;;;-1.22;60.19;100296.34;105943;1255;60476;-70
2024/01/06 04:21:22;;;;;;;19.30;9.80;;;;;;;-1.24;60.18;100299.17;105917;1255;65063;-69
2024/01/06 04:23:49;;;;;;;13.60;8.10;;;;;;;-1.25;60.06;100287.99;105854;1255;60543;-70
2024/01/06 04:26:16;;;;;;;14.10;7.90;;;;;;;-1.28;59.97;100277.51;105800;1255;63954;-70
2024/01/06 04:28:43;;;;;;;18.20;9.10;;;;;;;-1.30;59.94;100276.55;105863;1256;60426;-69
2024/01/06 04:31:10;;;;;;;24.20;12.50;;;;;;;-1.32;59.82;100285.59;105605;1256;60436;-69
2024/01/06 04:33:40;;;;;;;23.70;13.20;;;;;;;-1.36;59.94;100284.88;105757;1251;65355;-68
2024/01/06 04:36:07;;;;;;;30.30;14.30;;;;;;;-1.53;60.27;100280.24;105916;1256;60600;-68
2024/01/06 04:38:35;;;;;;;26.00;13.30;;;;;;;-1.39;60.05;100281.17;105870;1256;63986;-67
2024/01/06 04:41:02;;;;;;;25.10;12.60;;;;;;;-1.46;59.92;100284.66;105614;1251;60465;-67
2024/01/06 04:43:29;;;;;;;26.00;13.50;;;;;;;-1.78;60.49;100282.55;105786;1256;60413;-68
2024/01/06 04:45:57;;;;;;;26.10;13.70;;;;;;;-1.46;60.09;100273.27;105828;1256;65195;-68
2024/01/06 04:48:24;;;;;;;30.10;16.20;;;;;;;-1.36;59.89;100279.35;105892;1255;60471;-69
2024/01/06 04:50:52;;;;;;;32.00;18.20;;;;;;;-1.32;59.78;100292.01;106002;1251;64389;-69
2024/01/06 04:53:19;;;;;;;28.20;15.30;;;;;;;-1.29;59.78;100285.50;105905;1251;60300;-69
2024/01/06 04:55:46;;;;;;;27.40;15.60;;;;;;;-1.26;59.75;100285.06;105599;1259;60464;-70
2024/01/06 04:58:15;;;;;;;27.60;14.20;;;;;;;-1.22;59.79;100296.17;105817;1255;65199;-69
2024/01/06 05:00:42;;;;;;;33.10;18.20;;;;;;;-1.19;59.63;100315.05;105556;1256;60536;-70
2024/01/06 05:03:09;;;;;;;48.40;25.10;;;;;;;-1.48;59.73;100325.30;105861;1254;62801;-68
2024/01/06 05:05:36;;;;;;;48.40;28.80;;;;;;;-1.77;60.29;100326.37;105942;1250;60399;-70
2024/01/06 05:08:04;;;;;;;33.50;18.80;;;;;;;-1.57;60.32;100330.59;105908;1258;60546;-66
2024/01/06 05:10:31;;;;;;;37.40;20.90;;;;;;;-1.27;59.66;100338.66;105767;1251;63835;-65
2024/01/06 05:12:58;;;;;;;38.90;22.50;;;;;;;-1.23;59.44;100340.95;105863;1251;60540;-66
2024/01/06 05:15:25;;;;;;;32.70;16.00;;;;;;;-1.23;59.36;100348.55;105761;1254;64000;-68
2024/01/06 05:17:52;;;;;;;27.20;16.30;;;;;;;-1.24;59.29;100346.33;105811;1254;60440;-67
2024/01/06 05:20:19;;;;;;;31.40;16.20;;;;;;;-1.24;59.38;100342.88;105671;1251;60510;-69
2024/01/06 05:22:46;;;;;;;26.60;16.30;;;;;;;-1.23;59.47;100345.63;105955;1257;65296;-68
2024/01/06 05:25:13;;;;;;;23.70;12.50;;;;;;;-1.22;59.48;100348.51;105641;1251;60450;-68
2024/01/06 05:27:40;;;;;;;28.00;13.00;;;;;;;-1.75;60.54;100354.95;105836;1251;64612;-68
2024/01/06 05:30:08;;;;;;;14.50;9.20;;;;;;;-2.00;61.22;100360.34;105980;1255;60409;-69
2024/01/06 05:32:37;;;;;;;14.50;8.20;;;;;;;-2.06;61.07;100357.91;105862;1250;60435;-69
2024/01/06 05:35:05;;;;;;;14.70;8.70;;;;;;;-2.12;61.10;100355.85;105917;1257;65074;-68
2024/01/06 05:37:33;;;;;;;15.70;9.60;;;;;;;-2.15;61.25;100343.86;105923;1251;60559;-69
2024/01/06 05:40:02;;;;;;;16.20;8.90;;;;;;;-2.16;61.33;100333.36;106163;1252;64005;-70
2024/01/06 05:42:29;;;;;;;16.00;8.40;;;;;;;-2.18;61.27;100321.54;105770;1257;60479;-73
2024/01/06 05:44:56;;;;;;;15.30;8.50;;;;;;;-2.22;61.14;100318.01;105841;1257;60424;-72
2024/01/06 05:47:24;;;;;;;11.40;7.30;;;;;;;-2.26;61.24;100314.67;105953;1254;65043;-73
2024/01/06 05:49:51;;;;;;;14.40;6.70;;;;;;;-2.28;61.31;100320.63;106340;1251;60428;-72
2024/01/06 05:52:17;;;;;;;10.90;6.10;;;;;;;-2.30;61.31;100327.73;106176;1257;63930;-70
2024/01/06 05:54:44;;;;;;;13.50;7.70;;;;;;;-2.31;61.38;100322.41;106101;1251;60437;-77
2024/01/06 05:57:11;;;;;;;14.70;8.10;;;;;;;-2.33;61.39;100313.30;106180;1251;60984;-69
2024/01/06 05:59:39;;;;;;;16.00;8.50;;;;;;;-2.34;61.36;100314.70;105742;1254;65009;-70
2024/01/06 06:02:06;;;;;;;18.80;9.00;;;;;;;-2.33;61.38;100324.67;105735;1251;60494;-69
2024/01/06 06:04:33;;;;;;;11.50;6.40;;;;;;;-2.32;61.38;100325.02;105846;1251;64052;-70
2024/01/06 06:07:00;;;;;;;10.40;5.70;;;;;;;-2.32;61.22;100320.70;105741;1251;60432;-70
2024/01/06 06:09:29;;;;;;;10.50;5.40;;;;;;;-2.33;61.29;100317.09;106027;1251;60652;-71
2024/01/06 06:11:56;;;;;;;10.70;4.90;;;;;;;-2.34;61.28;100320.41;105955;1255;65354;-70
2024/01/06 06:14:23;;;;;;;8.70;4.90;;;;;;;-2.35;61.27;100321.82;105820;1255;60453;-71
2024/01/06 06:16:53;;;;;;;9.40;4.80;;;;;;;-2.35;61.35;100326.82;105814;1251;64021;-70
2024/01/06 06:19:20;;;;;;;8.40;5.30;;;;;;;-2.36;61.52;100321.66;105954;1252;60422;-71
2024/01/06 06:21:47;;;;;;;8.30;4.70;;;;;;;-2.35;61.65;100318.88;105687;1251;60415;-71
2024/01/06 06:24:14;;;;;;;8.10;4.90;;;;;;;-2.34;61.67;100313.66;105761;1254;65129;-70
2024/01/06 06:26:41;;;;;;;8.20;4.70;;;;;;;-2.32;61.72;100312.76;105883;1254;60472;-70
2024/01/06 06:29:08;;;;;;;10.20;5.00;;;;;;;-2.30;61.71;100318.24;105940;1255;62536;-70
2024/01/06 06:31:35;;;;;;;9.00;5.50;;;;;;;-2.29;61.62;100314.95;105776;1266;61177;-70
2024/01/06 06:34:02;;;;;;;8.80;5.80;;;;;;;-2.29;61.64;100301.50;106055;1251;60501;-70
2024/01/06 06:36:35;;;;;;;15.80;7.40;;;;;;;-2.28;61.49;100307.50;106083;1257;64936;-70
2024/01/06 06:39:04;;;;;;;30.70;14.80;;;;;;;-2.28;61.38;100314.23;105919;1254;60361;-72
2024/01/06 06:41:31;;;;;;;48.80;20.90;;;;;;;-2.26;61.33;100307.63;105842;1251;64089;-69
2024/01/06 06:43:57;;;;;;;65.30;29.30;;;;;;;-2.25;61.47;100306.71;105923;1251;60335;-69
2024/01/06 06:46:24;;;;;;;76.10;31.40;;;;;;;-2.22;61.57;100305.59;105826;1250;60473;-70
2024/01/06 06:48:51;;;;;;;66.50;29.50;;;;;;;-2.20;61.59;100303.80;105923;1251;65252;-69
2024/01/06 06:51:21;;;;;;;57.30;25.20;;;;;;;-2.18;61.65;100304.25;105906;1254;60799;-71
2024/01/06 06:53:48;;;;;;;52.00;24.00;;;;;;;-2.09;61.61;100304.70;105824;1252;63991;-71
2024/01/06 06:56:17;;;;;;;54.50;24.60;;;;;;;-2.11;61.75;100308.23;105716;1251;60325;-70
2024/01/06 06:58:45;;;;;;;41.00;18.40;;;;;;;-2.10;61.91;100305.08;105833;1254;60425;-69
2024/01/06 07:01:15;;;;;;;29.20;14.00;;;;;;;-2.08;61.81;100306.41;105903;1255;64949;-70
2024/01/06 07:03:42;;;;;;;27.10;13.30;;;;;;;-2.07;61.78;100291.38;105966;1254;60472;-70
2024/01/06 07:06:12;;;;;;;28.20;14.90;;;;;;;-2.05;61.77;100286.47;105805;1254;64155;-71
2024/01/06 07:08:39;;;;;;;32.20;17.30;;;;;;;-2.03;61.82;100289.69;105978;1251;60402;-73
2024/01/06 07:11:06;;;;;;;39.50;20.30;;;;;;;-2.00;61.87;100290.14;106015;1251;60367;-72
2024/01/06 07:13:33;;;;;;;35.10;20.10;;;;;;;-1.97;62.00;100290.36;106016;1251;65001;-72
2024/01/06 07:16:00;;;;;;;31.10;17.10;;;;;;;-1.92;62.00;100288.17;105793;1251;60578;-70
2024/01/06 07:18:44;;;;;;;22.40;14.10;;;;;;;-1.88;61.98;100290.42;106010;1257;64079;-71
2024/01/06 07:21:12;;;;;;;21.00;12.30;;;;;;;-1.85;62.01;100285.85;106140;1251;60940;-71
2024/01/06 07:23:39;;;;;;;21.90;11.80;;;;;;;-1.83;61.92;100284.96;106013;1251;60475;-72
2024/01/06 07:26:08;;;;;;;19.80;11.00;;;;;;;-1.84;61.67;100288.24;105996;1252;64894;-70
2024/01/06 07:28:34;;;;;;;19.60;10.00;;;;;;;-1.87;61.65;100277.65;105920;1254;60454;-75
2024/01/06 07:31:01;;;;;;;18.50;9.80;;;;;;;-1.88;61.74;100272.69;105942;1251;63685;-70
2024/01/06 07:33:29;;;;;;;26.00;10.20;;;;;;;-1.89;61.66;100267.19;105933;1251;60508;-70
2024/01/06 07:35:56;;;;;;;18.10;9.60;;;;;;;-1.88;61.82;100255.44;105955;1251;60505;-71
2024/01/06 07:38:23;;;;;;;21.60;10.20;;;;;;;-1.87;61.86;100253.33;105971;1254;64329;-69
2024/01/06 07:40:49;;;;;;;19.20;9.90;;;;;;;-1.87;61.78;100254.16;106046;1254;60726;-68
2024/01/06 07:43:16;;;;;;;21.90;9.70;;;;;;;-1.87;61.75;100251.73;105938;1251;63718;-69
2024/01/06 07:45:43;;;;;;;20.50;10.60;;;;;;;-1.86;61.95;100245.34;105827;1254;60444;-69
2024/01/06 07:48:10;;;;;;;17.50;9.90;;;;;;;-1.84;61.95;100245.63;106013;1251;60509;-69
2024/01/06 07:50:37;;;;;;;20.50;10.90;;;;;;;-1.81;61.98;100244.52;105918;1251;65371;-68
2024/01/06 07:53:03;;;;;;;20.30;11.30;;;;;;;-1.79;62.05;100237.01;105899;1251;60433;-69
2024/01/06 07:55:31;;;;;;;18.90;11.50;;;;;;;-1.75;61.98;100241.55;105880;1251;64111;-70
2024/01/06 07:57:58;;;;;;;20.50;10.80;;;;;;;-1.74;62.02;100236.69;105907;1251;60460;-69
2024/01/06 08:00:25;;;;;;;32.40;14.40;;;;;;;-1.72;61.91;100240.27;105678;1257;60403;-69
2024/01/06 08:02:52;;;;;;;29.10;14.20;;;;;;;-1.71;61.88;100242.14;105738;1251;63834;-69
2024/01/06 08:05:19;;;;;;;20.00;11.30;;;;;;;-1.68;62.00;100241.71;106058;1251;60447;-68
2024/01/06 08:07:46;;;;;;;27.40;13.20;;;;;;;-1.65;62.08;100248.15;105946;1255;63679;-68
2024/01/06 08:10:13;;;;;;;21.70;12.20;;;;;;;-1.61;62.09;100240.44;105827;1251;60525;-67
2024/01/06 08:12:40;;;;;;;28.40;15.00;;;;;;;-1.57;62.11;100233.56;105950;1251;60540;-70
2024/01/06 08:15:09;;;;;;;25.20;13.30;;;;;;;-1.55;62.11;100231.94;105722;1251;63826;-70
2024/01/06 08:17:36;;;;;;;36.40;18.10;;;;;;;-1.53;61.96;100233.95;105954;1251;60428;-69
2024/01/06 08:20:03;;;;;;;36.50;19.60;;;;;;;-1.52;61.83;100225.80;105957;1250;64000;-70
2024/01/06 08:22:30;;;;;;;42.70;20.60;;;;;;;-1.49;61.78;100220.88;105918;1251;60449;-69
2024/01/06 08:24:57;;;;;;;33.10;17.80;;;;;;;-1.47;61.79;100211.98;105928;1254;60640;-70
2024/01/06 08:27:24;;;;;;;31.10;16.50;;;;;;;-1.44;61.80;100208.80;105871;1251;64119;-71
2024/01/06 08:29:51;;;;;;;30.50;18.20;;;;;;;-1.42;61.70;100211.84;105684;1258;60454;-70
2024/01/06 08:32:18;;;;;;;30.00;18.70;;;;;;;-1.41;61.60;100205.59;105928;1254;63747;-71
2024/01/06 08:34:45;;;;;;;34.10;18.10;;;;;;;-1.38;61.69;100197.73;105955;1251;60345;-72
2024/01/06 08:37:13;;;;;;;32.50;19.40;;;;;;;-1.35;61.68;100190.71;105900;1251;60463;-70
2024/01/06 08:39:39;;;;;;;33.10;17.60;;;;;;;-1.32;61.74;100187.70;105896;1251;63815;-69
2024/01/06 08:42:06;;;;;;;33.80;16.10;;;;;;;-1.30;61.85;100191.22;105988;1251;60507;-68
2024/01/06 08:44:33;;;;;;;28.40;14.90;;;;;;;-1.26;61.82;100188.84;105863;1254;63798;-72
2024/01/06 08:47:00;;;;;;;32.70;15.80;;;;;;;-1.22;61.87;100185.27;106112;1251;61204;-67
2024/01/06 08:49:27;;;;;;;36.60;18.10;;;;;;;-1.17;61.81;100179.03;106072;1251;60464;-69
2024/01/06 08:51:54;;;;;;;38.20;16.70;;;;;;;-1.13;61.72;100180.48;105902;1251;63885;-68
2024/01/06 08:54:21;;;;;;;35.80;17.20;;;;;;;-1.08;61.71;100178.23;106024;1251;60598;-69
2024/01/06 08:56:48;;;;;;;40.30;18.90;;;;;;;-1.02;61.84;100172.65;105922;1251;62517;-69
2024/01/06 08:59:15;;;;;;;38.20;19.30;;;;;;;-0.95;61.83;100165.16;106082;1254;60429;-68
2024/01/06 09:01:42;;;;;;;33.30;17.20;;;;;;;-0.88;61.89;100165.92;106033;1254;60428;-69
2024/01/06 09:04:11;;;;;;;38.00;20.40;;;;;;;-0.80;61.84;100165.30;105765;1257;65033;-68
2024/01/06 09:06:38;;;;;;;32.70;17.30;;;;;;;-0.74;61.78;100158.86;106038;1251;60476;-69
2024/01/06 09:09:06;;;;;;;33.80;18.00;;;;;;;-0.68;61.66;100151.19;106323;1251;63779;-71
2024/01/06 09:11:32;;;;;;;39.60;21.00;;;;;;;-0.62;61.55;100150.10;106090;1251;60486;-71
2024/01/06 09:14:00;;;;;;;37.50;20.00;;;;;;;-0.57;61.46;100141.79;106121;1254;60450;-69
2024/01/06 09:16:27;;;;;;;29.30;15.20;;;;;;;-0.52;61.38;100133.31;106062;1251;65218;-69
2024/01/06 09:18:54;;;;;;;26.00;14.20;;;;;;;-0.48;60.92;100132.28;105999;1251;60457;-68
2024/01/06 09:21:21;;;;;;;23.60;12.60;;;;;;;-0.45;60.47;100130.28;105950;1251;62646;-68
2024/01/06 09:23:48;;;;;;;18.30;11.10;;;;;;;-0.42;60.42;100130.84;105768;1251;60465;-67
2024/01/06 09:26:16;;;;;;;16.20;9.30;;;;;;;-0.38;60.16;100121.70;105866;1251;60534;-68
2024/01/06 09:28:45;;;;;;;12.50;7.40;;;;;;;-0.35;59.96;100117.58;105890;1251;63744;-69
2024/01/06 09:31:14;;;;;;;12.10;6.00;;;;;;;-0.33;59.70;100111.27;105903;1254;60482;-67
2024/01/06 09:33:41;;;;;;;11.30;6.30;;;;;;;-0.31;59.63;100107.55;105862;1254;63965;-68
2024/01/06 09:36:11;;;;;;;9.50;6.30;;;;;;;-0.28;59.60;100103.85;105943;1254;61936;-67
2024/01/06 09:38:38;;;;;;;14.70;9.00;;;;;;;-0.26;59.60;100092.52;105905;1250;60461;-68
2024/01/06 09:41:05;;;;;;;14.90;9.30;;;;;;;-0.22;59.54;100086.80;105888;1252;65101;-68
2024/01/06 09:43:33;;;;;;;10.40;7.40;;;;;;;-0.17;59.62;100087.66;106043;1251;60447;-68
2024/01/06 09:46:10;;;;;;;11.50;6.60;;;;;;;-0.13;59.44;100089.21;106019;1251;64052;-68
2024/01/06 09:48:41;;;;;;;7.90;4.80;;;;;;;-0.10;59.17;100089.10;105983;1251;60538;-68
2024/01/06 09:51:10;;;;;;;9.60;5.40;;;;;;;-0.09;58.85;100090.61;105867;1255;60475;-68
2024/01/06 09:53:43;;;;;;;9.30;5.70;;;;;;;-0.06;58.84;100087.38;105882;1251;65318;-68
2024/01/06 09:56:09;;;;;;;13.00;6.80;;;;;;;-0.01;58.89;100081.48;105697;1250;60460;-69
2024/01/06 09:58:37;;;;;;;9.90;6.40;;;;;;;0.05;58.89;100074.66;105797;1251;64574;-68
2024/01/06 10:01:04;;;;;;;10.20;6.00;;;;;;;0.10;58.80;100060.94;105802;1256;60392;-68
2024/01/06 10:03:31;;;;;;;8.10;5.00;;;;;;;0.16;58.67;100060.34;105760;1251;60553;-67
2024/01/06 10:06:02;;;;;;;9.30;5.10;;;;;;;0.21;58.62;100059.63;105838;1254;66433;-67
2024/01/06 10:08:35;;;;;;;9.20;5.80;;;;;;;0.25;58.13;100055.97;105978;1251;60497;-68
2024/01/06 10:11:01;;;;;;;9.60;6.30;;;;;;;0.30;58.07;100049.21;105932;1251;64058;-67
2024/01/06 10:13:29;;;;;;;9.00;5.40;;;;;;;0.34;58.16;100041.38;105918;1251;60348;-67
2024/01/06 10:15:56;;;;;;;6.90;4.00;;;;;;;0.39;57.95;100029.94;105927;1251;60537;-68
2024/01/06 10:18:25;;;;;;;6.10;3.60;;;;;;;0.43;57.85;100016.41;105853;1254;65003;-68
2024/01/06 10:20:53;;;;;;;5.30;4.00;;;;;;;0.47;57.74;100009.66;105928;1250;67067;-68
2024/01/06 10:23:23;;;;;;;7.00;5.10;;;;;;;0.50;57.82;100006.23;105889;1251;65042;-69
2024/01/06 10:25:53;;;;;;;10.40;6.10;;;;;;;0.53;57.76;100002.77;105826;1250;60539;-70
2024/01/06 10:28:26;;;;;;;12.60;7.20;;;;;;;0.55;57.68;100004.59;105722;1256;60441;-69
2024/01/06 10:30:53;;;;;;;14.30;7.90;;;;;;;0.57;57.49;99995.34;106021;1251;63630;-69
2024/01/06 10:33:23;;;;;;;9.30;5.60;;;;;;;0.58;57.65;99985.62;105853;1252;60424;-69
2024/01/06 10:35:50;;;;;;;9.80;5.40;;;;;;;0.58;57.77;99976.59;105757;1253;63881;-69
2024/01/06 10:38:17;;;;;;;10.90;5.80;;;;;;;0.60;57.94;99974.95;105823;1256;60517;-70
2024/01/06 10:41:02;;;;;;;9.10;5.90;;;;;;;0.64;58.01;99968.89;105956;1253;60441;-70
2024/01/06 10:43:29;;;;;;;11.20;5.90;;;;;;;0.67;58.14;99962.17;105702;1251;64881;-70
2024/01/06 10:45:57;;;;;;;8.30;5.80;;;;;;;0.69;58.22;99953.91;105850;1257;60463;-69
2024/01/06 10:48:26;;;;;;;10.10;6.50;;;;;;;0.72;58.32;99947.70;105832;1251;63824;-70
2024/01/06 10:50:54;;;;;;;11.40;6.90;;;;;;;0.75;58.40;99944.24;105908;1254;60418;-69
2024/01/06 10:53:22;;;;;;;12.30;7.30;;;;;;;0.78;58.46;99939.98;105770;1257;60314;-68
2024/01/06 10:55:51;;;;;;;10.20;6.30;;;;;;;0.81;58.53;99939.50;105830;1256;64927;-69
2024/01/06 10:58:23;;;;;;;11.60;6.60;;;;;;;0.83;58.46;99932.10;106006;1256;60342;-69
2024/01/06 11:00:50;;;;;;;11.20;6.80;;;;;;;0.86;58.42;99925.21;105725;1252;63804;-68
2024/01/06 11:03:17;;;;;;;12.50;6.90;;;;;;;0.89;58.46;99920.09;105839;1251;60485;-70
2024/01/06 11:05:44;;;;;;;23.80;17.20;;;;;;;0.92;58.62;99914.23;105849;1250;60441;-68
2024/01/06 11:08:11;;;;;;;20.30;14.00;;;;;;;0.95;58.43;99911.09;105958;1250;63753;-70